x

Yucatan Basin - 120 Nm Ese Of Cozumel, Mx (42056) Wave Buoy

4:50pm - Wed 27th Aug 2014 All times are CDT. -5 hours from GMT.

  • Sig Wave height 1.6ft
  • Swell Direction
  • Peak Period 8s
  • Average Period 4s
  • Wind
    9mph, 11mph gusts
  • Sea Temp 87°f
  • Air Temp 86°f
  • Sea Pressure 1010.6mb
  •  Yucatan Basin - 120 Nm Ese Of Cozumel, Mx
  •  Yucatan Basin - 120 Nm Ese Of Cozumel, Mx

More Historic Weather Station data

Upgrade to MSW Pro to gain access to the past 30 days of data for over 8000 Wavebouys and Weather Stations around the globe.

Join Pro

Comparision Forecast

View Surf forecast
   
Wed 08/27 4:50pm 1.6ft 8s 4s 9 11 mph 1010.6mb 87f 86f
3:50pm 1.6ft 8s 4s 11 13 mph 1010.7mb 87f 86f
2:50pm 1.6ft 8s 4s 4 7 mph 1011mb 87f 85f
1:50pm 1.3ft 8s 4s 13 16 mph 1011.5mb 87f 84f
12:50pm 1.3ft 8s 5s 9 11 mph 1012mb 87f 86f
11:50am 1.3ft 8s 4s 7 9 mph 1012.1mb 87f 85f
10:50am 1.3ft 8s 4s 9
mph
1011.8mb 86f 85f
9:50am 1.3ft 8s 4s 7 9 mph 1011.3mb 86f 85f
8:50am 1.3ft 8s 4s 7 11 mph 1011.1mb 86f 85f
7:50am 1.3ft 8s 4s 9 11 mph 1010.6mb 86f 85f
6:50am 1.3ft 8s 5s 9 11 mph 1010.2mb 86f 84f
5:50am 1.3ft 4s 5s 7 9 mph 1009.9mb 86f 84f
4:50am 1.3ft 8s 4s 7 9 mph 1009.4mb 86f 84f
3:50am 1.3ft 4s 4s 7 9 mph 1009.5mb 86f 84f
2:50am 1.3ft 9s 4s 2 4 mph 1010mb 86f 84f
1:50am 1.3ft 4s 4s 4 11 mph 1010.4mb 86f 84f
12:50am 1.6ft 4s 4s 2 4 mph 1010.3mb 86f 85f
Tue 08/26 11:50pm 1.6ft 4s 4s  -  mph 1010.3mb 86f 85f
10:50pm 1.6ft 4s 4s  -  2 mph 1010.7mb 86f 85f
9:50pm 1.6ft 3s 4s 2 4 mph 1010.7mb 86f 85f
8:50pm 1.3ft 4s 4s 4
mph
1010.4mb 86f 85f
7:50pm 1.6ft 3s 3s 7 9 mph 1009.5mb 86f 86f
6:50pm 1.6ft 3s 3s 7 9 mph 1008.8mb 86f 84f
5:50pm 1.6ft 3s 3s 9 11 mph 1008.6mb 86f 85f
4:50pm 1.3ft 3s 3s 11 13 mph 1008.6mb 86f 86f
3:50pm 1.6ft 3s 3s 11 16 mph 1008.8mb 87f 86f
2:50pm 1.6ft 5s 3s 11 13 mph 1009.1mb 87f 85f
1:50pm 1.3ft 6s 3s 11 16 mph 1009.7mb 86f 85f
12:50pm 1.3ft 5s 4s 9 11 mph 1010.3mb 87f 86f
11:50am 1.3ft 4s 4s 11 13 mph 1010.4mb 86f 86f
10:50am 1.3ft 4s 4s 11
mph
1010.6mb 86f 85f
9:50am 1.3ft 4s 4s 9 11 mph 1010.1mb 86f 85f
8:50am 1.3ft 4s 4s 11 13 mph 1009.5mb 86f 85f
7:50am 1.3ft 4s 4s 9 11 mph 1009.4mb 86f 85f
6:50am 1.6ft 4s 4s 9
mph
1008.7mb 86f 85f
5:50am 1.3ft 4s 4s 9 11 mph 1008.3mb 86f 85f
4:50am 1.6ft 3s 4s 7 9 mph 1008.1mb 86f 85f
3:50am 1.3ft 4s 4s 7 9 mph 1007.8mb 86f 85f
2:50am 1.3ft 5s 4s 7 9 mph 1008.1mb 86f 85f
1:50am 1.3ft 5s 4s 7 9 mph 1008.4mb 86f 85f
12:50am 1ft 5s 4s 4 7 mph 1008.8mb 86f 85f
Mon 08/25 11:50pm 1ft 5s 4s 7
mph
1009.2mb 86f 85f
10:50pm 1ft 6s 4s 4 7 mph 1009.3mb 86f 85f
9:50pm 1ft 5s 4s 9 11 mph 1009mb 86f 85f
8:50pm 1.3ft 6s 4s 9
mph
1008.5mb 86f 85f
7:50pm 1.3ft 6s 4s 9
mph
1007.8mb 86f 86f
6:50pm 1.3ft 6s 4s 9
mph
1007.6mb 86f 86f
5:50pm 1.3ft 5s 4s 9 11 mph 1007.6mb 86f 86f
4:50pm 1.3ft 6s 4s 9 11 mph 1007.5mb 86f 86f
3:50pm 1.6ft 7s 4s 9 11 mph 1007.6mb 86f 86f
2:50pm 1.6ft 5s 4s 9 11 mph 1007.8mb 86f 86f
1:50pm 1.6ft 5s 4s 9 11 mph 1008.3mb 87f 85f
12:50pm 1.6ft 7s 4s 9 11 mph 1009.2mb 86f 85f
11:50am 2ft 6s 4s 9 11 mph 1009.4mb 86f 85f
10:50am 1.6ft 6s 4s 9 11 mph 1009.7mb 86f 85f
9:50am 1.6ft 5s 4s 9 13 mph 1009.4mb 86f 85f
8:50am 1.6ft 7s 4s 9 11 mph 1009.1mb 86f 85f
7:50am 1.6ft 6s 4s 11
mph
1008.8mb 86f 85f
6:50am 2ft 6s 4s 11 13 mph 1008.1mb 86f 85f
5:50am 2ft 6s 4s 9 11 mph 1008mb 86f 84f
4:50am 2ft 6s 4s 9 11 mph 1008.1mb 86f 85f
3:50am 1.6ft 6s 4s 9 11 mph 1008.2mb 86f 85f
2:50am 2ft 6s 4s 9
mph
1008.8mb 86f 85f
1:50am 2ft 6s 4s 9 11 mph 1009.1mb 86f 85f
12:50am 2ft 6s 4s 9
mph
1009.9mb 86f 85f
Sun 08/24 11:50pm 2.5ft 6s 4s 9
mph
1010.2mb 86f 85f
10:50pm 2.5ft 6s 4s 9 11 mph 1010.1mb 86f 85f
9:50pm 2.5ft 7s 4s 11
mph
1009.9mb 86f 85f
8:50pm 2.5ft 6s 4s 11 13 mph 1009.2mb 86f 85f
7:50pm 2.5ft 6s 4s 11 13 mph 1008.4mb 86f 85f
6:50pm 2.5ft 6s 4s 11 13 mph 1008.1mb 86f 85f
5:50pm 2.5ft 6s 4s 13 16 mph 1008mb 86f 85f
4:50pm 2.5ft 6s 4s 13 16 mph 1008.2mb 86f 85f
3:50pm 2.5ft 7s 4s 13 16 mph 1008.2mb 86f 85f
2:50pm 2.5ft 7s 5s 13 16 mph 1008.9mb 86f 85f
1:50pm 3ft 7s 5s 13 16 mph 1009.6mb 86f 85f
12:50pm 3ft 7s 5s 11 13 mph 1010.2mb 86f 85f
11:50am 3.5ft 7s 5s 11 13 mph 1010.4mb 86f 85f
10:50am 3.5ft 7s 5s 13 16 mph 1010.6mb 86f 85f
9:50am 3ft 6s 5s 13 16 mph 1010.5mb 86f 85f
8:50am 3ft 7s 5s 11 13 mph 1010.2mb 86f 85f
7:50am 2.5ft 7s 5s 11 13 mph 1010mb 86f 84f
6:50am 2.5ft 6s 5s 9 11 mph 1009.8mb 86f 84f
5:50am 3ft 7s 5s 9 11 mph 1009.6mb 86f 83f
4:50am 2.5ft 6s 5s 7 9 mph 1009.4mb 86f 83f
3:50am 2.5ft 6s 5s 9 11 mph 1009.4mb 86f 84f
2:50am 2.5ft 7s 5s 9
mph
1009.7mb 86f 85f
1:50am 2.5ft 6s 5s 9
mph
1010.2mb 86f 85f
12:50am 2.5ft 6s 5s 9 11 mph 1010.9mb 86f 85f
Sat 08/23 11:50pm 2.5ft 6s 5s 9
mph
1011.6mb 86f 85f